Time;durP1;ratioP1;P1;durP2;ratioP2;P2;SDS_P1;SDS_P2;PMS_P1;PMS_P2;Temp;Humidity;BMP_temperature;BMP_pressure;BME280_temperature;BME280_humidity;BME280_pressure;Samples;Min_cycle;Max_cycle;Signal;HPM_P1;HPM_P2
2021/07/11 00:00:47;;;;;;;15.03;9.00;;;;;;;;;;5050647;28;20281;-65
2021/07/11 00:03:12;;;;;;;18.42;9.00;;;;;;;;;;5063949;28;20275;-65
2021/07/11 00:05:37;;;;;;;14.32;9.10;;;;;;;;;;5068919;28;20115;-65
2021/07/11 00:08:02;;;;;;;19.73;9.70;;;;;;;;;;5069979;28;20013;-65
2021/07/11 00:10:27;;;;;;;17.52;10.55;;;;;;;;;;5069547;28;20671;-64
2021/07/11 00:12:55;;;;;;;20.87;10.40;;;;;;;;;;5070371;28;20165;-65
2021/07/11 00:15:22;;;;;;;18.27;10.43;;;;;;;;;;5067023;28;20278;-65
2021/07/11 00:17:48;;;;;;;16.75;9.93;;;;;;;;;;5069765;28;20024;-65
2021/07/11 00:20:14;;;;;;;27.52;12.18;;;;;;;;;;5070247;28;20021;-65
2021/07/11 00:22:39;;;;;;;19.58;11.13;;;;;;;;;;5067120;28;20031;-65
2021/07/11 00:25:06;;;;;;;21.60;11.45;;;;;;;;;;5069713;28;20052;-65
2021/07/11 00:27:31;;;;;;;22.33;12.10;;;;;;;;;;5068578;28;20079;-65
2021/07/11 00:29:57;;;;;;;21.42;12.50;;;;;;;;;;5070114;28;20112;-65
2021/07/11 00:32:22;;;;;;;29.23;13.25;;;;;;;;;;5070033;28;20024;-65
2021/07/11 00:34:47;;;;;;;20.67;12.47;;;;;;;;;;5069741;28;20070;-65
2021/07/11 00:37:12;;;;;;;23.50;12.65;;;;;;;;;;5072627;28;20258;-65
2021/07/11 00:39:37;;;;;;;18.00;11.67;;;;;;;;;;5073954;28;20044;-65
2021/07/11 00:42:03;;;;;;;26.27;12.60;;;;;;;;;;5073537;28;20298;-65
2021/07/11 00:44:28;;;;;;;21.13;12.30;;;;;;;;;;5073694;28;20689;-65
2021/07/11 00:46:54;;;;;;;23.57;12.90;;;;;;;;;;5073548;28;20089;-65
2021/07/11 00:49:19;;;;;;;25.35;13.50;;;;;;;;;;5073546;28;20739;-65
2021/07/11 00:51:44;;;;;;;30.77;14.30;;;;;;;;;;5073584;28;20053;-65
2021/07/11 00:54:10;;;;;;;29.00;14.23;;;;;;;;;;5073450;28;20267;-65
2021/07/11 00:56:35;;;;;;;26.70;14.40;;;;;;;;;;5065872;28;20154;-65
2021/07/11 00:59:00;;;;;;;26.60;13.68;;;;;;;;;;5064319;28;20468;-65
2021/07/11 01:01:29;;;;;;;21.83;12.45;;;;;;;;;;5073791;28;20055;-65
2021/07/11 01:03:57;;;;;;;29.95;13.88;;;;;;;;;;5073117;28;20051;-65
2021/07/11 01:06:22;;;;;;;24.90;14.07;;;;;;;;;;5073327;28;20028;-65
2021/07/11 01:09:05;;;;;;;26.23;14.63;;;;;;;;;;5073260;28;20434;-65
2021/07/11 01:11:32;;;;;;;30.42;13.93;;;;;;;;;;5072695;28;20021;-65
2021/07/11 01:13:58;;;;;;;25.88;13.93;;;;;;;;;;5064005;28;20025;-65
2021/07/11 01:16:25;;;;;;;31.40;14.43;;;;;;;;;;5073311;28;20404;-65
2021/07/11 01:18:51;;;;;;;28.83;14.43;;;;;;;;;;5072917;28;20017;-65
2021/07/11 01:21:17;;;;;;;25.40;13.63;;;;;;;;;;5073498;28;20484;-65
2021/07/11 01:24:00;;;;;;;27.42;14.63;;;;;;;;;;5073035;28;20027;-65
2021/07/11 01:26:27;;;;;;;25.05;14.30;;;;;;;;;;5053193;28;20571;-65
2021/07/11 01:28:52;;;;;;;32.40;14.60;;;;;;;;;;5068917;28;20407;-65
2021/07/11 01:31:19;;;;;;;29.52;15.48;;;;;;;;;;5072964;28;20050;-65
2021/07/11 01:33:44;;;;;;;27.80;15.60;;;;;;;;;;5072923;28;20425;-65
2021/07/11 01:36:11;;;;;;;29.67;15.20;;;;;;;;;;5074881;28;20107;-65
2021/07/11 01:38:37;;;;;;;36.63;16.70;;;;;;;;;;5072679;28;20021;-65
2021/07/11 01:41:03;;;;;;;27.10;15.15;;;;;;;;;;5073174;28;20067;-65
2021/07/11 01:43:29;;;;;;;34.15;16.55;;;;;;;;;;5072733;28;20028;-65
2021/07/11 01:45:54;;;;;;;32.50;16.80;;;;;;;;;;5072144;28;20392;-65
2021/07/11 01:48:20;;;;;;;32.00;16.25;;;;;;;;;;5072076;28;20005;-65
2021/07/11 01:50:53;;;;;;;28.65;15.98;;;;;;;;;;5073034;28;20100;-65
2021/07/11 01:53:22;;;;;;;32.67;17.05;;;;;;;;;;5072537;28;20023;-65
2021/07/11 01:55:48;;;;;;;28.05;15.48;;;;;;;;;;5072137;28;20024;-65
2021/07/11 01:58:13;;;;;;;36.53;16.80;;;;;;;;;;5069387;28;20040;-65
2021/07/11 02:00:38;;;;;;;32.43;15.57;;;;;;;;;;5052753;28;20125;-65
2021/07/11 02:03:13;;;;;;;47.20;18.93;;;;;;;;;;5070230;28;20332;-65
2021/07/11 02:05:39;;;;;;;36.72;17.85;;;;;;;;;;5072128;28;20309;-65
2021/07/11 02:08:05;;;;;;;35.97;18.47;;;;;;;;;;5072193;28;20028;-65
2021/07/11 02:10:30;;;;;;;40.90;18.73;;;;;;;;;;5072504;28;20263;-65
2021/07/11 02:13:01;;;;;;;39.33;18.58;;;;;;;;;;5070023;28;20041;-65
2021/07/11 02:15:29;;;;;;;;;;;;;;;;;;5072309;28;20389;-65
2021/07/11 02:17:55;;;;;;;36.90;19.55;;;;;;;;;;5070873;28;19908;-65
2021/07/11 02:20:21;;;;;;;40.30;20.65;;;;;;;;;;5072004;28;20021;-65
2021/07/11 02:22:47;;;;;;;47.53;20.90;;;;;;;;;;5072199;28;20016;-65
2021/07/11 02:25:15;;;;;;;47.20;20.63;;;;;;;;;;5071488;28;20032;-65
2021/07/11 02:27:42;;;;;;;51.65;21.88;;;;;;;;;;5053186;28;20029;-65
2021/07/11 02:30:13;;;;;;;44.15;19.60;;;;;;;;;;5071348;28;20044;-65
2021/07/11 02:32:43;;;;;;;;;;;;;;;;;;5072875;28;20099;-65
2021/07/11 02:35:08;;;;;;;39.65;19.67;;;;;;;;;;5071663;28;19915;-65
2021/07/11 02:37:33;;;;;;;44.72;21.20;;;;;;;;;;5073461;28;20028;-65
2021/07/11 02:39:59;;;;;;;53.85;23.42;;;;;;;;;;5070781;28;20024;-65
2021/07/11 02:42:24;;;;;;;50.50;25.40;;;;;;;;;;5071669;28;20025;-65
2021/07/11 02:44:51;;;;;;;57.35;25.38;;;;;;;;;;5070744;28;20291;-65
2021/07/11 02:47:17;;;;;;;52.67;24.58;;;;;;;;;;5071621;28;20198;-65
2021/07/11 02:49:45;;;;;;;51.50;24.00;;;;;;;;;;5071549;28;20495;-65
2021/07/11 02:52:10;;;;;;;46.40;23.23;;;;;;;;;;5071432;28;20074;-65
2021/07/11 02:54:44;;;;;;;50.77;23.60;;;;;;;;;;5070151;28;20033;-65
2021/07/11 02:57:10;;;;;;;44.95;22.45;;;;;;;;;;5071317;28;20270;-65
2021/07/11 02:59:36;;;;;;;54.33;23.55;;;;;;;;;;5071256;28;20043;-65
2021/07/11 03:02:02;;;;;;;53.38;23.33;;;;;;;;;;5071178;28;20384;-65
2021/07/11 03:04:29;;;;;;;46.75;22.42;;;;;;;;;;5071033;28;20028;-65
2021/07/11 03:06:54;;;;;;;52.72;24.52;;;;;;;;;;5070193;28;20541;-65
2021/07/11 03:09:19;;;;;;;47.53;23.37;;;;;;;;;;5071282;28;20024;-65
2021/07/11 03:11:44;;;;;;;49.37;22.50;;;;;;;;;;5070948;28;20350;-64
2021/07/11 03:14:10;;;;;;;57.42;27.15;;;;;;;;;;5070918;28;20797;-64
2021/07/11 03:16:42;;;;;;;60.05;28.08;;;;;;;;;;5069611;28;20024;-65
2021/07/11 03:19:08;;;;;;;58.75;28.52;;;;;;;;;;5068189;28;20453;-64
2021/07/11 03:21:33;;;;;;;73.88;27.98;;;;;;;;;;5061163;28;20024;-65
2021/07/11 03:23:59;;;;;;;57.60;29.27;;;;;;;;;;5051000;28;20579;-64
2021/07/11 03:26:27;;;;;;;70.07;30.00;;;;;;;;;;5068838;28;20020;-64
2021/07/11 03:28:52;;;;;;;54.72;29.08;;;;;;;;;;5070685;28;20587;-64
2021/07/11 03:31:18;;;;;;;62.30;28.23;;;;;;;;;;5069902;28;20020;-65
2021/07/11 03:33:46;;;;;;;60.55;27.13;;;;;;;;;;5069198;28;20127;-64
2021/07/11 03:36:12;;;;;;;57.13;28.30;;;;;;;;;;5072324;28;20453;-65
2021/07/11 03:38:41;;;;;;;58.97;29.17;;;;;;;;;;5070106;28;20021;-65
2021/07/11 03:41:10;;;;;;;61.42;29.35;;;;;;;;;;5070628;28;20039;-64
2021/07/11 03:43:39;;;;;;;72.47;30.17;;;;;;;;;;5070298;28;20021;-65
2021/07/11 03:46:06;;;;;;;58.45;27.55;;;;;;;;;;5070264;28;20672;-65
2021/07/11 03:48:34;;;;;;;58.65;26.85;;;;;;;;;;5064282;28;20028;-65
2021/07/11 03:51:00;;;;;;;63.05;26.70;;;;;;;;;;5061457;28;20350;-64
2021/07/11 03:53:29;;;;;;;53.25;27.20;;;;;;;;;;5070484;28;20009;-64
2021/07/11 03:55:54;;;;;;;71.97;28.65;;;;;;;;;;5070247;28;20029;-65
2021/07/11 03:58:21;;;;;;;63.30;29.92;;;;;;;;;;5070323;28;20371;-65
2021/07/11 04:00:46;;;;;;;67.70;28.70;;;;;;;;;;5069957;28;20071;-65
2021/07/11 04:03:13;;;;;;;57.88;27.27;;;;;;;;;;5065890;28;20012;-65
2021/07/11 04:05:38;;;;;;;65.15;29.23;;;;;;;;;;5070145;28;20154;-65
2021/07/11 04:08:05;;;;;;;61.65;28.27;;;;;;;;;;5070344;28;20107;-65
2021/07/11 04:10:30;;;;;;;64.20;29.83;;;;;;;;;;5071795;28;20048;-64
2021/07/11 04:12:57;;;;;;;66.57;29.00;;;;;;;;;;5076588;28;20397;-64
2021/07/11 04:15:22;;;;;;;64.72;30.95;;;;;;;;;;5075450;28;20035;-65
2021/07/11 04:17:48;;;;;;;64.78;29.65;;;;;;;;;;5075741;28;20029;-65
2021/07/11 04:20:14;;;;;;;64.95;29.50;;;;;;;;;;5076819;28;20484;-65
2021/07/11 04:22:40;;;;;;;61.08;27.58;;;;;;;;;;5076878;28;20074;-65
2021/07/11 04:25:06;;;;;;;58.25;27.40;;;;;;;;;;5076386;28;20505;-65
2021/07/11 04:27:33;;;;;;;62.63;27.73;;;;;;;;;;5077110;28;20103;-65
2021/07/11 04:29:58;;;;;;;52.33;27.17;;;;;;;;;;5071625;28;20470;-64
2021/07/11 04:32:23;;;;;;;57.80;28.52;;;;;;;;;;5073931;28;20115;-64
2021/07/11 04:34:49;;;;;;;62.00;28.33;;;;;;;;;;5073885;28;20027;-65
2021/07/11 04:37:14;;;;;;;54.47;26.50;;;;;;;;;;5071451;28;20448;-65
2021/07/11 04:39:40;;;;;;;50.47;27.50;;;;;;;;;;5074334;28;20052;-64
2021/07/11 04:42:05;;;;;;;57.72;27.10;;;;;;;;;;5074347;28;20035;-65
2021/07/11 04:44:31;;;;;;;55.45;27.65;;;;;;;;;;5066378;28;20056;-64
2021/07/11 04:46:56;;;;;;;57.63;27.20;;;;;;;;;;5065200;28;20397;-65
2021/07/11 04:49:22;;;;;;;60.83;26.83;;;;;;;;;;5066320;28;20495;-64
2021/07/11 04:51:48;;;;;;;53.95;27.00;;;;;;;;;;5072061;28;20028;-65
2021/07/11 04:54:13;;;;;;;58.20;27.27;;;;;;;;;;5073088;28;20024;-65
2021/07/11 04:56:38;;;;;;;55.63;28.83;;;;;;;;;;5075681;28;20074;-64
2021/07/11 04:59:04;;;;;;;58.78;26.05;;;;;;;;;;5076340;28;20066;-64
2021/07/11 05:01:29;;;;;;;66.45;30.92;;;;;;;;;;5076571;28;20016;-65
2021/07/11 05:03:54;;;;;;;58.80;28.57;;;;;;;;;;5075573;28;20016;-65
2021/07/11 05:06:20;;;;;;;58.53;25.65;;;;;;;;;;5076347;28;20279;-64
2021/07/11 05:08:46;;;;;;;56.70;26.23;;;;;;;;;;5076212;28;20032;-64
2021/07/11 05:11:12;;;;;;;57.88;27.77;;;;;;;;;;5069547;28;20029;-64
2021/07/11 05:13:44;;;;;;;52.85;27.13;;;;;;;;;;5095925;22;20029;-93
2021/07/11 05:16:18;;;;;;;57.92;27.15;;;;;;;;;;5040068;28;20037;-92
2021/07/11 05:18:43;;;;;;;56.85;28.20;;;;;;;;;;5042635;28;20116;-93
2021/07/11 05:21:09;;;;;;;55.28;26.83;;;;;;;;;;5032748;28;20052;-91
2021/07/11 05:23:38;;;;;;;55.25;25.77;;;;;;;;;;5033869;28;20033;-94
2021/07/11 05:26:03;;;;;;;61.92;27.23;;;;;;;;;;5055580;28;20033;-93
2021/07/11 05:28:29;;;;;;;52.60;25.75;;;;;;;;;;5055047;28;20118;-94
2021/07/11 05:31:06;;;;;;;52.78;27.80;;;;;;;;;;5056243;28;20030;-94
2021/07/11 05:33:41;;;;;;;61.13;28.30;;;;;;;;;;5050797;28;20021;-92
2021/07/11 05:36:10;;;;;;;54.92;27.02;;;;;;;;;;5036325;28;20521;-93
2021/07/11 05:38:42;;;;;;;51.28;25.55;;;;;;;;;;5027488;28;20032;-92
2021/07/11 05:41:08;;;;;;;52.00;26.42;;;;;;;;;;5032872;28;20025;-92
2021/07/11 05:43:35;;;;;;;58.03;26.58;;;;;;;;;;5034500;28;20101;-91
2021/07/11 05:46:04;;;;;;;52.88;25.02;;;;;;;;;;5032164;28;20041;-93
2021/07/11 05:48:33;;;;;;;55.50;25.42;;;;;;;;;;5032450;28;20032;-92
2021/07/11 05:51:11;;;;;;;55.87;25.33;;;;;;;;;;5020873;28;20017;-92
2021/07/11 05:53:59;;;;;;;56.58;24.30;;;;;;;;;;5030382;28;20067;-93
2021/07/11 05:57:26;;;;;;;;;;;;;;;;;;;;;
2021/07/11 06:02:43;;;;;;;43.95;24.05;;;;;;;;;;5027788;22;20078;-65
2021/07/11 06:05:08;;;;;;;55.63;25.63;;;;;;;;;;5049592;28;20045;-65
2021/07/11 06:07:33;;;;;;;57.58;26.23;;;;;;;;;;5050324;28;20025;-65
2021/07/11 06:09:59;;;;;;;62.67;25.52;;;;;;;;;;5049785;28;20416;-66
2021/07/11 06:12:25;;;;;;;58.28;26.52;;;;;;;;;;5049617;28;20032;-66
2021/07/11 06:14:50;;;;;;;57.88;27.00;;;;;;;;;;5049189;28;20037;-66
2021/07/11 06:17:15;;;;;;;57.90;25.02;;;;;;;;;;5077279;22;20045;-65
2021/07/11 06:19:40;;;;;;;57.15;26.05;;;;;;;;;;5070438;28;20029;-65
2021/07/11 06:22:05;;;;;;;53.03;24.80;;;;;;;;;;5071376;28;20050;-65
2021/07/11 06:24:31;;;;;;;58.53;27.33;;;;;;;;;;5072219;28;20275;-64
2021/07/11 06:26:56;;;;;;;64.07;26.10;;;;;;;;;;5070506;28;20298;-64
2021/07/11 06:29:21;;;;;;;52.83;27.00;;;;;;;;;;5069202;28;20281;-65
2021/07/11 06:31:46;;;;;;;59.00;27.67;;;;;;;;;;5068730;28;20273;-65
2021/07/11 06:34:11;;;;;;;60.00;31.23;;;;;;;;;;5071850;28;20316;-65
2021/07/11 06:36:37;;;;;;;58.10;32.30;;;;;;;;;;5070007;28;20040;-65
2021/07/11 06:39:04;;;;;;;64.10;31.67;;;;;;;;;;5069479;28;20357;-64
2021/07/11 06:41:29;;;;;;;64.78;30.95;;;;;;;;;;5071264;28;20025;-64
2021/07/11 06:43:54;;;;;;;68.00;32.07;;;;;;;;;;5070334;28;20028;-65
2021/07/11 06:46:19;;;;;;;60.85;31.75;;;;;;;;;;5070061;28;20279;-65
2021/07/11 06:48:44;;;;;;;56.10;28.13;;;;;;;;;;5066987;28;20017;-65
2021/07/11 06:51:10;;;;;;;62.90;30.70;;;;;;;;;;5069415;28;20616;-65
2021/07/11 06:53:35;;;;;;;68.03;32.20;;;;;;;;;;5070753;28;20259;-65
2021/07/11 06:56:00;;;;;;;64.60;31.88;;;;;;;;;;5060917;28;20282;-65
2021/07/11 06:58:26;;;;;;;68.70;32.30;;;;;;;;;;5060476;28;20405;-65
2021/07/11 07:00:51;;;;;;;61.97;32.85;;;;;;;;;;5066693;28;20035;-65
2021/07/11 07:03:16;;;;;;;64.77;32.93;;;;;;;;;;5068109;28;20021;-65
2021/07/11 07:05:41;;;;;;;65.53;32.10;;;;;;;;;;5061950;28;20282;-65
2021/07/11 07:08:07;;;;;;;77.45;35.13;;;;;;;;;;5066233;28;20376;-64
2021/07/11 07:10:32;;;;;;;64.43;32.45;;;;;;;;;;5067918;28;20020;-64
2021/07/11 07:12:57;;;;;;;74.10;31.83;;;;;;;;;;5058284;28;20039;-64
2021/07/11 07:15:22;;;;;;;71.95;31.35;;;;;;;;;;5063220;28;20347;-64
2021/07/11 07:17:47;;;;;;;59.47;30.55;;;;;;;;;;5070959;28;20044;-64
2021/07/11 07:20:13;;;;;;;65.00;30.43;;;;;;;;;;5070090;28;20024;-64
2021/07/11 07:22:39;;;;;;;66.75;32.78;;;;;;;;;;5061278;28;20681;-64
2021/07/11 07:25:05;;;;;;;68.22;32.38;;;;;;;;;;5060567;28;20042;-64
2021/07/11 07:27:30;;;;;;;60.20;30.15;;;;;;;;;;5069084;28;20095;-64
2021/07/11 07:29:55;;;;;;;63.23;30.27;;;;;;;;;;5070754;28;20136;-64
2021/07/11 07:32:20;;;;;;;64.03;30.85;;;;;;;;;;5061872;28;20751;-64
2021/07/11 07:34:46;;;;;;;59.83;30.30;;;;;;;;;;5062891;28;20058;-64
2021/07/11 07:37:11;;;;;;;66.20;30.30;;;;;;;;;;5065799;28;20024;-64
2021/07/11 07:39:36;;;;;;;61.93;30.83;;;;;;;;;;5051291;28;20639;-64
2021/07/11 07:42:01;;;;;;;56.78;31.00;;;;;;;;;;5064532;28;20278;-64
2021/07/11 07:44:27;;;;;;;62.22;31.25;;;;;;;;;;5070290;28;20485;-64
2021/07/11 07:46:52;;;;;;;62.43;30.63;;;;;;;;;;5058855;28;20024;-64
2021/07/11 07:49:17;;;;;;;63.03;31.42;;;;;;;;;;5061597;28;20624;-64
2021/07/11 07:51:42;;;;;;;55.92;29.73;;;;;;;;;;5048540;28;20060;-64
2021/07/11 07:54:08;;;;;;;54.22;28.70;;;;;;;;;;5059665;28;20095;-64
2021/07/11 07:56:33;;;;;;;55.35;29.83;;;;;;;;;;5064504;28;20032;-64
2021/07/11 07:58:58;;;;;;;64.55;30.65;;;;;;;;;;5048336;28;20526;-64
2021/07/11 08:01:24;;;;;;;59.05;33.45;;;;;;;;;;5052996;28;20017;-64
2021/07/11 08:03:49;;;;;;;54.58;30.90;;;;;;;;;;5048828;28;20028;-64
2021/07/11 08:06:14;;;;;;;57.45;30.58;;;;;;;;;;5064095;28;20013;-64
2021/07/11 08:08:39;;;;;;;62.23;31.80;;;;;;;;;;5063368;28;20127;-64
2021/07/11 08:11:07;;;;;;;58.30;32.13;;;;;;;;;;5068002;28;20275;-64
2021/07/11 08:13:32;;;;;;;51.42;27.98;;;;;;;;;;5067387;28;20263;-64
2021/07/11 08:15:57;;;;;;;60.72;29.38;;;;;;;;;;5062914;28;20143;-64
2021/07/11 08:18:23;;;;;;;54.47;26.93;;;;;;;;;;5066654;28;20098;-64
2021/07/11 08:20:48;;;;;;;48.55;25.25;;;;;;;;;;5049295;28;20274;-64
2021/07/11 08:23:13;;;;;;;42.40;24.13;;;;;;;;;;5048348;28;20479;-64
2021/07/11 08:25:38;;;;;;;55.03;26.60;;;;;;;;;;5059284;28;20302;-64
2021/07/11 08:28:04;;;;;;;47.50;25.20;;;;;;;;;;5065889;28;20023;-64
2021/07/11 08:30:29;;;;;;;48.60;28.40;;;;;;;;;;5066360;28;20044;-65
2021/07/11 08:32:54;;;;;;;54.08;29.33;;;;;;;;;;5069994;28;20522;-64
2021/07/11 08:35:19;;;;;;;48.75;27.70;;;;;;;;;;5064640;28;20095;-64
2021/07/11 08:37:45;;;;;;;54.42;26.92;;;;;;;;;;5051927;28;20025;-64
2021/07/11 08:40:11;;;;;;;48.15;24.15;;;;;;;;;;5063482;28;20047;-64
2021/07/11 08:42:39;;;;;;;36.72;20.80;;;;;;;;;;5063163;28;20131;-64
2021/07/11 08:45:05;;;;;;;33.17;19.88;;;;;;;;;;5062582;28;20071;-64
2021/07/11 08:47:30;;;;;;;41.53;21.30;;;;;;;;;;5069763;28;20052;-64
2021/07/11 08:49:55;;;;;;;35.65;19.67;;;;;;;;;;5069488;28;20067;-64
2021/07/11 08:52:21;;;;;;;40.63;21.17;;;;;;;;;;5068904;28;20043;-64
2021/07/11 08:54:46;;;;;;;36.88;20.60;;;;;;;;;;5068833;28;20263;-64
2021/07/11 08:57:11;;;;;;;52.35;21.48;;;;;;;;;;5070632;28;20021;-64
2021/07/11 08:59:37;;;;;;;38.08;19.48;;;;;;;;;;5069561;28;20034;-65
2021/07/11 09:02:04;;;;;;;37.38;19.15;;;;;;;;;;5070766;28;20461;-64
2021/07/11 09:04:46;;;;;;;40.72;18.95;;;;;;;;;;5073003;28;20024;-65
2021/07/11 09:07:15;;;;;;;39.97;20.25;;;;;;;;;;5055582;28;20032;-64
2021/07/11 09:09:40;;;;;;;39.67;19.25;;;;;;;;;;5072529;28;20100;-64
2021/07/11 09:12:08;;;;;;;40.83;21.27;;;;;;;;;;5073023;28;20108;-65
2021/07/11 09:14:35;;;;;;;40.08;19.80;;;;;;;;;;5072026;28;20099;-65
2021/07/11 09:17:01;;;;;;;41.08;21.13;;;;;;;;;;5073811;28;20027;-65
2021/07/11 09:19:31;;;;;;;39.00;21.48;;;;;;;;;;5071744;28;20059;-65
2021/07/11 09:22:00;;;;;;;36.95;21.05;;;;;;;;;;5071227;28;20017;-64
2021/07/11 09:24:26;;;;;;;37.17;21.00;;;;;;;;;;5070207;28;20024;-64
2021/07/11 09:26:54;;;;;;;39.28;20.17;;;;;;;;;;5069339;28;20616;-64
2021/07/11 09:29:29;;;;;;;37.33;20.77;;;;;;;;;;5065599;28;20468;-64
2021/07/11 09:31:55;;;;;;;36.10;20.48;;;;;;;;;;5057651;28;20381;-64
2021/07/11 09:34:24;;;;;;;33.28;19.63;;;;;;;;;;5069416;28;20013;-64
2021/07/11 09:37:21;;;;;;;36.13;19.17;;;;;;;;;;5069914;28;20507;-64
2021/07/11 09:39:46;;;;;;;39.33;20.33;;;;;;;;;;5014493;28;20032;-64
2021/07/11 09:42:22;;;;;;;34.55;19.23;;;;;;;;;;5051553;28;20021;-64
2021/07/11 09:44:47;;;;;;;36.60;19.98;;;;;;;;;;5062260;28;20115;-64
2021/07/11 09:47:19;;;;;;;36.80;20.80;;;;;;;;;;5056057;28;20087;-64
2021/07/11 09:49:55;;;;;;;36.35;20.13;;;;;;;;;;5066179;28;20271;-64
2021/07/11 09:52:21;;;;;;;37.97;20.98;;;;;;;;;;5063403;28;20477;-64
2021/07/11 09:54:53;;;;;;;34.67;20.17;;;;;;;;;;5067793;28;20047;-64
2021/07/11 09:57:28;;;;;;;38.78;20.17;;;;;;;;;;5066576;28;20028;-64
2021/07/11 09:59:58;;;;;;;41.10;22.05;;;;;;;;;;5067424;28;20020;-64
2021/07/11 10:02:24;;;;;;;36.75;19.73;;;;;;;;;;5063038;28;20635;-64
2021/07/11 10:04:49;;;;;;;33.27;17.57;;;;;;;;;;5068902;28;20028;-64
2021/07/11 10:07:14;;;;;;;34.67;20.25;;;;;;;;;;5070312;28;20250;-64
2021/07/11 10:09:39;;;;;;;33.47;18.67;;;;;;;;;;5069142;28;20540;-65
2021/07/11 10:12:05;;;;;;;31.80;18.67;;;;;;;;;;5069180;28;20271;-64
2021/07/11 10:14:30;;;;;;;32.67;18.50;;;;;;;;;;5069858;28;20263;-64
2021/07/11 10:16:55;;;;;;;31.77;16.67;;;;;;;;;;5069289;28;20062;-65
2021/07/11 10:19:20;;;;;;;34.92;19.17;;;;;;;;;;5068998;28;20024;-65
2021/07/11 10:21:47;;;;;;;26.90;17.33;;;;;;;;;;5063622;28;20103;-64
2021/07/11 10:24:17;;;;;;;29.40;18.30;;;;;;;;;;5063042;28;20013;-64
2021/07/11 10:26:42;;;;;;;27.90;17.77;;;;;;;;;;5069692;28;20043;-64
2021/07/11 10:29:12;;;;;;;23.90;15.90;;;;;;;;;;5069505;28;20544;-65
2021/07/11 10:31:42;;;;;;;20.40;14.43;;;;;;;;;;5069213;28;20021;-64
2021/07/11 10:34:07;;;;;;;26.17;16.38;;;;;;;;;;5065717;28;20032;-65
2021/07/11 10:36:33;;;;;;;27.58;16.05;;;;;;;;;;5068352;28;20036;-65
2021/07/11 10:38:59;;;;;;;23.67;14.95;;;;;;;;;;5068238;28;20107;-65
2021/07/11 10:41:29;;;;;;;25.75;15.57;;;;;;;;;;5067827;28;20103;-64
2021/07/11 10:44:03;;;;;;;26.00;16.13;;;;;;;;;;5057505;28;20366;-65
2021/07/11 10:46:30;;;;;;;23.35;15.13;;;;;;;;;;5052697;28;20324;-64
2021/07/11 10:48:55;;;;;;;28.45;16.67;;;;;;;;;;5060707;28;20021;-65
2021/07/11 10:51:21;;;;;;;21.90;14.23;;;;;;;;;;5065766;28;20027;-64
2021/07/11 10:53:46;;;;;;;25.92;15.05;;;;;;;;;;5067010;28;20665;-64
2021/07/11 10:56:17;;;;;;;20.42;13.55;;;;;;;;;;5064288;28;20329;-64
2021/07/11 10:58:46;;;;;;;27.23;13.23;;;;;;;;;;5069824;28;20487;-64
2021/07/11 11:01:15;;;;;;;27.25;15.10;;;;;;;;;;5064705;28;20039;-65
2021/07/11 11:03:44;;;;;;;26.20;13.60;;;;;;;;;;5066161;28;20024;-65
2021/07/11 11:06:18;;;;;;;24.58;13.18;;;;;;;;;;5070417;28;20079;-64
2021/07/11 11:08:44;;;;;;;20.08;12.80;;;;;;;;;;5062213;28;20457;-64
2021/07/11 11:11:09;;;;;;;22.48;12.60;;;;;;;;;;5065479;28;20033;-64
2021/07/11 11:13:34;;;;;;;17.98;11.40;;;;;;;;;;5069585;28;20074;-64
2021/07/11 11:16:00;;;;;;;18.83;12.53;;;;;;;;;;5056043;28;20516;-65
2021/07/11 11:18:33;;;;;;;24.42;11.02;;;;;;;;;;5052284;28;20370;-64
2021/07/11 11:21:03;;;;;;;18.50;11.57;;;;;;;;;;5063790;28;20024;-65
2021/07/11 11:23:35;;;;;;;18.52;10.70;;;;;;;;;;5061776;28;20021;-64
2021/07/11 11:26:01;;;;;;;15.25;8.70;;;;;;;;;;5055941;28;20040;-65
2021/07/11 11:28:26;;;;;;;18.35;7.60;;;;;;;;;;5059388;28;20017;-64
2021/07/11 11:30:52;;;;;;;17.83;9.27;;;;;;;;;;5055661;28;20051;-65
2021/07/11 11:33:17;;;;;;;13.98;9.40;;;;;;;;;;5061725;28;20346;-65
2021/07/11 11:35:45;;;;;;;17.30;10.07;;;;;;;;;;5062472;28;20143;-65
2021/07/11 11:38:10;;;;;;;14.98;9.38;;;;;;;;;;5068994;28;21042;-65
2021/07/11 11:40:36;;;;;;;21.40;11.83;;;;;;;;;;5070065;28;20124;-65
2021/07/11 11:43:03;;;;;;;16.55;9.80;;;;;;;;;;5070635;28;20028;-64
2021/07/11 11:45:30;;;;;;;18.25;10.88;;;;;;;;;;5067656;28;20032;-65
2021/07/11 11:48:05;;;;;;;14.50;10.18;;;;;;;;;;5060021;28;20551;-65
2021/07/11 11:50:32;;;;;;;15.85;10.98;;;;;;;;;;5068305;28;20024;-65
2021/07/11 11:53:05;;;;;;;16.00;9.82;;;;;;;;;;5069451;28;20537;-65
2021/07/11 11:55:30;;;;;;;17.25;9.63;;;;;;;;;;5061028;28;20021;-65
2021/07/11 11:57:59;;;;;;;14.53;8.90;;;;;;;;;;5059199;28;20032;-64
2021/07/11 12:00:24;;;;;;;17.35;9.35;;;;;;;;;;5069702;28;20735;-65
2021/07/11 12:02:57;;;;;;;15.50;8.50;;;;;;;;;;5069349;28;20035;-65
2021/07/11 12:05:22;;;;;;;14.60;8.85;;;;;;;;;;5069641;28;20063;-65
2021/07/11 12:07:47;;;;;;;12.13;9.10;;;;;;;;;;5069623;28;20130;-65
2021/07/11 12:10:13;;;;;;;18.77;8.93;;;;;;;;;;5069719;28;20834;-65
2021/07/11 12:12:38;;;;;;;14.07;8.63;;;;;;;;;;5069964;28;20259;-65
2021/07/11 12:15:04;;;;;;;14.05;9.68;;;;;;;;;;5067010;28;20103;-65
2021/07/11 12:17:33;;;;;;;13.48;8.13;;;;;;;;;;5077579;22;20037;-88
2021/07/11 12:19:59;;;;;;;12.63;8.73;;;;;;;;;;5052619;28;20017;-88
2021/07/11 12:22:27;;;;;;;12.35;8.27;;;;;;;;;;5065519;28;20069;-88
2021/07/11 12:25:10;;;;;;;11.52;7.18;;;;;;;;;;5042548;28;20499;-88
2021/07/11 12:27:36;;;;;;;13.15;7.30;;;;;;;;;;5037597;28;20032;-88
2021/07/11 12:30:31;;;;;;;8.73;6.90;;;;;;;;;;5036307;28;20028;-88
2021/07/11 12:32:56;;;;;;;10.13;7.65;;;;;;;;;;5021600;28;20044;-88
2021/07/11 12:35:24;;;;;;;10.68;7.90;;;;;;;;;;5056105;28;20358;-89
2021/07/11 12:37:50;;;;;;;12.00;6.50;;;;;;;;;;5051459;28;20058;-90
2021/07/11 12:40:16;;;;;;;11.25;5.70;;;;;;;;;;5048135;28;20129;-87
2021/07/11 12:42:41;;;;;;;9.38;5.50;;;;;;;;;;5040249;28;20025;-89
2021/07/11 12:45:15;;;;;;;9.40;6.32;;;;;;;;;;5042784;28;20044;-88
2021/07/11 12:47:47;;;;;;;9.23;5.82;;;;;;;;;;5040781;28;20124;-88
2021/07/11 12:50:12;;;;;;;7.93;6.05;;;;;;;;;;5058301;28;20040;-91
2021/07/11 12:52:38;;;;;;;9.60;5.88;;;;;;;;;;5045348;28;20041;-90
2021/07/11 12:55:10;;;;;;;11.02;6.07;;;;;;;;;;5054256;28;20013;-89
2021/07/11 12:57:36;;;;;;;12.00;5.88;;;;;;;;;;5033726;28;20577;-91
2021/07/11 13:00:01;;;;;;;9.70;5.47;;;;;;;;;;5039337;28;20028;-88
2021/07/11 13:02:29;;;;;;;6.88;4.93;;;;;;;;;;5062741;28;20294;-89
2021/07/11 13:04:57;;;;;;;5.18;3.78;;;;;;;;;;5043164;28;20518;-89
2021/07/11 13:07:23;;;;;;;7.70;4.45;;;;;;;;;;5033185;28;20071;-90
2021/07/11 13:09:49;;;;;;;8.05;4.47;;;;;;;;;;5051610;28;20468;-91
2021/07/11 13:12:14;;;;;;;7.55;4.18;;;;;;;;;;5068721;28;20073;-88
2021/07/11 13:14:52;;;;;;;6.90;3.92;;;;;;;;;;5048262;28;20063;-91
2021/07/11 13:17:17;;;;;;;16.85;5.00;;;;;;;;;;5035468;28;20029;-87
2021/07/11 13:19:42;;;;;;;11.13;4.40;;;;;;;;;;5043119;28;20032;-87
2021/07/11 13:22:08;;;;;;;7.10;4.33;;;;;;;;;;5037275;28;20705;-90
2021/07/11 13:24:33;;;;;;;7.63;3.60;;;;;;;;;;5050084;28;20259;-89
2021/07/11 13:26:58;;;;;;;5.90;3.50;;;;;;;;;;5057773;28;20013;-90
2021/07/11 13:29:23;;;;;;;6.40;3.67;;;;;;;;;;5051108;28;20056;-88
2021/07/11 13:31:49;;;;;;;7.13;3.45;;;;;;;;;;5055174;28;20267;-91
2021/07/11 13:34:14;;;;;;;9.17;4.10;;;;;;;;;;5039901;28;20048;-90
2021/07/11 13:36:39;;;;;;;9.13;4.10;;;;;;;;;;5044991;28;20272;-90
2021/07/11 13:39:05;;;;;;;6.45;3.58;;;;;;;;;;5048943;28;20046;-88
2021/07/11 13:41:30;;;;;;;7.25;3.75;;;;;;;;;;5057544;28;20028;-90
2021/07/11 13:43:55;;;;;;;8.00;3.80;;;;;;;;;;5040606;28;20021;-89
2021/07/11 13:46:20;;;;;;;6.60;3.95;;;;;;;;;;5056382;28;20366;-88
2021/07/11 13:48:46;;;;;;;7.43;5.00;;;;;;;;;;5021028;28;20030;-92
2021/07/11 13:51:11;;;;;;;9.15;4.13;;;;;;;;;;5060383;28;20031;-88
2021/07/11 13:53:37;;;;;;;8.45;3.65;;;;;;;;;;5049614;28;20480;-90
2021/07/11 13:56:02;;;;;;;6.05;3.80;;;;;;;;;;5041295;28;20026;-91
2021/07/11 13:58:28;;;;;;;9.40;3.75;;;;;;;;;;5038106;28;20025;-88
2021/07/11 14:00:53;;;;;;;4.70;3.50;;;;;;;;;;5052196;28;20028;-88
2021/07/11 14:03:19;;;;;;;8.23;3.67;;;;;;;;;;5028620;28;20443;-89
2021/07/11 14:05:45;;;;;;;11.23;4.85;;;;;;;;;;5054222;28;20310;-90
2021/07/11 14:08:10;;;;;;;7.70;4.05;;;;;;;;;;5074855;28;20404;-88
2021/07/11 14:10:35;;;;;;;14.30;4.13;;;;;;;;;;5052010;28;20028;-88
2021/07/11 14:13:01;;;;;;;7.88;4.35;;;;;;;;;;5052940;28;20017;-89
2021/07/11 14:15:27;;;;;;;5.07;3.53;;;;;;;;;;5048696;28;20054;-88
2021/07/11 14:17:53;;;;;;;5.93;4.15;;;;;;;;;;5038493;28;20036;-88
2021/07/11 14:20:21;;;;;;;6.95;4.53;;;;;;;;;;5039648;28;20020;-90
2021/07/11 14:22:46;;;;;;;9.48;4.63;;;;;;;;;;5034216;28;20021;-89
2021/07/11 14:25:12;;;;;;;5.60;3.97;;;;;;;;;;5055337;28;20135;-88